Terminal Aerodrome Forecast
Issued by NWS

Home | Current Version | Previous Version | Text Only | Print | Product List | Glossary On
Versions: 1 2 3 4 5 6 7 8 9 10 11 12 13 14 15 16 17 18 19 20 21 22 23 24
000
FTUS45 KCYS 261140
TAFAIA
TAF
KAIA 261140Z 2612/2712 10010KT 4SM -RA OVC007
     FM261700 12010KT 6SM -DZ BR OVC015
     FM270000 12011KT 3SM BR OVC007=

USA.gov is the U.S. government's official web portal to all federal, state and local government web resources and services.